Latest Weather Observations for Cape Byron

IDN60801

Issued at 7:32 pm EST Wednesday 24 May 2017 (issued every 30 minutes, with the page automatically refreshed every 10 minutes)

About weather observations | Map of weather stations | Latest weather observations for NSW | Other Formats
Station Details ID: 058216 Name: CAPE BYRON AWS Lat: -28.64 Lon: 153.64 Height: 95.0 m
Data from the previous 72 hours. | See also: Recent months at Cape Byron
Date/Time
EST
Temp
°C
App
Temp
°C
Dew
Point
°C
Rel
Hum
%
Delta-T
°C
Wind Press
QNH
hPa
Press
MSL
hPa
Rain since
9am
mm
Dir  Spd
km/h
Gust
km/h
Spd
kts
Gust
kts
24/07:30pm 21.0 21.6 19.5 91 1.0 N 15 19 8 10 1015.7 1015.5 0.2
24/07:00pm 21.1 21.6 19.2 89 1.2 NNW 15 20 8 11 1015.6 1015.4 0.2
24/06:30pm 21.1 23.0 19.7 92 0.9 NNW 9 15 5 8 1015.6 1015.4 0.2
24/06:00pm 21.4 22.7 20.2 93 0.8 NNW 13 20 7 11 1015.3 1015.1 0.2
24/05:30pm 21.5 22.4 20.0 91 1.0 N 15 22 8 12 1015.3 1015.1 0.2
24/05:00pm 21.7 22.4 19.6 88 1.3 N 15 22 8 12 1015.1 1014.9 0.2
24/04:30pm 22.0 21.6 19.0 83 1.9 N 19 26 10 14 1014.9 1014.7 0.2
24/04:00pm 22.3 22.1 18.5 79 2.4 N 17 26 9 14 1014.9 1014.7 0.2
24/03:30pm 23.1 23.1 18.2 74 3.1 N 15 22 8 12 1015.1 1014.9 0.2
24/03:00pm 23.3 23.7 17.3 69 3.7 N 11 19 6 10 1015.2 1015.0 0.2
24/02:30pm 23.3 23.0 17.3 69 3.7 N 15 20 8 11 1015.1 1014.9 0.2
24/02:00pm 23.2 23.7 18.3 74 3.1 N 13 19 7 10 1015.4 1015.2 0.2
24/01:30pm 22.7 23.0 18.0 75 2.9 NNE 13 17 7 9 1015.8 1015.6 0.2
24/01:00pm 22.7 23.3 18.7 78 2.5 NNE 13 17 7 9 1016.0 1015.8 0.2
24/12:30pm 22.5 23.1 18.5 78 2.5 NNE 13 17 7 9 1016.7 1016.4 0.2
24/12:00pm 22.6 22.6 18.2 76 2.8 NNE 15 20 8 11 1017.2 1016.9 0.2
24/11:30am 22.0 22.1 17.4 75 2.8 NNE 13 17 7 9 1017.7 1017.4 0.2
24/11:00am 23.3 24.7 17.7 71 3.5 NNW 7 9 4 5 1018.5 1018.2 0.2
24/10:30am 22.3 23.7 17.7 75 2.9 NNE 7 9 4 5 1018.8 1018.6 0.0
24/10:00am 20.3 21.2 17.5 84 1.7 ESE 9 13 5 7 1019.3 1019.1 0.0
24/09:30am 18.9 18.0 16.9 88 1.2 SSW 17 20 9 11 1020.0 1019.8 0.0
24/09:00am 18.7 18.0 17.4 92 0.8 SSW 17 20 9 11 1020.1 1019.9 0.0
24/08:30am 18.6 20.1 17.6 94 0.6 SW 6 7 3 4 1019.6 1019.4 0.0
24/08:00am 18.6 21.2 17.4 93 0.7 CALM 0 4 0 2 1019.6 1019.4 0.0
24/07:30am 18.6 20.3 18.1 97 0.3 NE 6 7 3 4 1019.3 1019.1 0.0
24/07:00am 18.4 19.6 18.2 99 0.1 NNE 9 11 5 6 1019.1 1018.9 0.0
24/06:30am 17.3 18.4 17.1 99 0.1 NNW 7 9 4 5 1018.9 1018.7 0.0
24/06:00am 17.3 18.4 17.1 99 0.1 NNW 7 9 4 5 1018.7 1018.5 0.0
24/05:30am 17.5 18.3 17.3 99 0.1 NNW 9 13 5 7 1018.6 1018.3 0.0
24/05:00am 17.4 18.2 17.2 99 0.1 NNW 9 11 5 6 1018.3 1018.0 0.0
24/04:30am 17.2 17.9 17.0 99 0.1 NNW 9 11 5 6 1018.2 1017.9 0.0
24/04:00am 17.2 17.9 17.0 99 0.1 NW 9 13 5 7 1018.3 1018.0 0.0
24/03:30am 17.3 17.6 17.1 99 0.1 NNW 11 13 6 7 1018.4 1018.1 0.0
24/03:00am 17.1 17.7 16.9 99 0.1 NW 9 13 5 7 1018.6 1018.3 0.0
24/02:30am 17.0 17.2 16.8 99 0.1 NW 11 15 6 8 1018.7 1018.5 0.0
24/02:00am 17.1 17.7 16.9 99 0.1 NW 9 13 5 7 1019.0 1018.8 0.0
24/01:30am 17.4 17.8 17.2 99 0.1 NW 11 13 6 7 1019.1 1018.9 0.0
24/01:00am 17.7 18.5 17.4 98 0.2 NW 9 13 5 7 1019.5 1019.3 0.0
24/12:30am 17.8 18.2 17.3 97 0.3 NW 11 13 6 7 1019.8 1019.6 0.0
24/12:00am 17.9 18.2 17.1 95 0.5 NW 11 15 6 8 1020.1 1019.9 0.0
 
Date/Time
EST
Temp
°C
App
Temp
°C
Dew
Point
°C
Rel
Hum
%
Delta-T
°C
Wind Press
QNH
hPa
Press
MSL
hPa
Rain since
9am
mm
Dir  Spd
km/h
Gust
km/h
Spd
kts
Gust
kts
23/11:30pm 18.3 19.1 17.3 94 0.6 WNW 9 11 5 6 1020.5 1020.3 0.0
23/11:00pm 18.5 19.3 17.3 93 0.7 WNW 9 13 5 7 1020.7 1020.5 0.0
23/10:30pm 18.5 18.9 17.3 93 0.7 WNW 11 13 6 7 1020.9 1020.7 0.0
23/10:00pm 19.0 20.2 17.3 90 1.0 NNW 7 13 4 7 1021.0 1020.8 0.0
23/09:30pm 19.1 20.5 17.4 90 1.0 NNW 6 7 3 4 1021.0 1020.8 0.0
23/09:00pm 19.0 20.2 17.3 90 1.0 WNW 7 9 4 5 1021.2 1021.0 0.0
23/08:30pm 19.1 20.4 17.2 89 1.2 NW 6 7 3 4 1021.1 1020.9 0.0
23/08:00pm 19.2 21.3 17.3 89 1.2 E 2 7 1 4 1021.1 1020.9 0.0
23/07:30pm 19.4 20.9 17.5 89 1.2 NNE 6 9 3 5 1020.9 1020.7 0.0
23/07:00pm 19.5 20.1 17.8 90 1.0 E 11 15 6 8 1020.7 1020.5 0.0
23/06:30pm 19.5 20.1 17.6 89 1.2 E 11 15 6 8 1020.6 1020.4 0.0
23/06:00pm 19.5 20.2 17.1 86 1.5 E 9 15 5 8 1020.4 1020.2 0.0
23/05:30pm 19.6 19.5 17.0 85 1.6 E 13 17 7 9 1019.9 1019.7 0.0
23/05:00pm 19.7 19.0 17.3 86 1.5 E 17 20 9 11 1019.7 1019.5 0.0
23/04:30pm 20.0 18.8 17.6 86 1.5 E 20 24 11 13 1019.4 1019.2 0.0
23/04:00pm 20.5 19.4 17.7 84 1.7 E 20 24 11 13 1019.3 1019.1 0.0
23/03:30pm 20.8 19.6 17.6 82 2.0 SE 20 24 11 13 1019.3 1019.1 0.0
23/03:00pm 20.9 19.9 17.5 81 2.1 SE 19 22 10 12 1019.3 1019.1 0.0
23/02:30pm 21.2 20.4 18.0 82 2.0 SE 19 24 10 13 1019.4 1019.2 0.0
23/02:00pm 21.2 20.0 17.4 79 2.3 SE 20 24 11 13 1019.5 1019.3 0.0
23/01:30pm 21.4 20.5 17.8 80 2.2 SE 19 26 10 14 1019.6 1019.4 0.0
23/01:00pm 21.6 21.2 18.0 80 2.2 SSE 17 20 9 11 1020.1 1019.9 0.0
23/12:30pm 21.4 20.7 17.4 78 2.5 SE 17 22 9 12 1020.6 1020.4 0.0
23/12:00pm 21.6 22.0 18.2 81 2.1 SSE 13 19 7 10 1021.0 1020.8 0.0
23/11:30am 21.4 22.1 18.0 81 2.1 S 11 15 6 8 1021.4 1021.2 0.0
23/11:00am 20.9 21.0 17.5 81 2.1 SSW 13 19 7 10 1021.8 1021.6 0.0
23/10:30am 20.7 21.1 18.1 85 1.6 SSW 13 19 7 10 1022.2 1022.0 0.0
23/10:00am 20.0 20.3 18.0 88 1.2 SW 13 17 7 9 1022.6 1022.4 0.0
23/09:30am 19.4 20.0 18.6 95 0.5 WSW 13 20 7 11 1022.8 1022.6 0.0
23/09:00am 18.7 18.9 18.5 99 0.1 WSW 15 20 8 11 1023.0 1022.8 0.4
23/08:30am 18.1 17.7 18.1 100 0.0 WSW 17 20 9 11 1022.8 1022.6 0.4
23/08:00am 17.5 16.5 17.5 100 0.0 SW 19 20 10 11 1022.7 1022.5 0.4
23/07:30am 17.2 15.9 17.2 100 0.0 SW 20 26 11 14 1022.5 1022.3 0.4
23/07:00am 16.9 15.6 16.9 100 0.0 SW 19 22 10 12 1022.3 1022.1 0.4
23/06:30am 16.9 15.6 16.9 100 0.0 WSW 19 22 10 12 1021.8 1021.6 0.4
23/06:00am 17.1 15.7 17.1 100 0.0 WSW 20 26 11 14 1021.6 1021.4 0.2
23/05:30am 17.0 15.6 17.0 100 0.0 WSW 20 28 11 15 1021.3 1021.1 0.2
23/05:00am 17.2 15.5 17.2 100 0.0 SW 22 28 12 15 1021.0 1020.8 0.2
23/04:30am 17.3 16.0 17.3 100 0.0 WSW 20 28 11 15 1021.0 1020.8 0.2
23/04:00am 17.2 15.9 17.2 100 0.0 WSW 20 28 11 15 1021.0 1020.8 0.2
23/03:30am 17.3 16.0 17.3 100 0.0 WSW 20 24 11 13 1020.8 1020.6 0.2
23/03:00am 17.5 16.5 17.5 100 0.0 WSW 19 24 10 13 1020.8 1020.6 0.2
23/02:30am 17.7 16.6 17.7 100 0.0 WSW 20 26 11 14 1020.8 1020.6 0.0
23/02:00am 17.7 16.7 17.5 99 0.1 WSW 19 24 10 13 1021.0 1020.8 0.0
23/01:30am 18.4 19.2 18.2 99 0.1 SW 11 15 6 8 1021.3 1021.1 0.0
23/01:00am 18.4 18.1 18.2 99 0.1 WSW 17 19 9 10 1021.4 1021.2 0.0
23/12:30am 18.4 18.4 18.2 99 0.1 WSW 15 19 8 10 1021.7 1021.5 0.0
23/12:00am 18.5 19.0 18.3 99 0.1 WSW 13 17 7 9 1022.0 1021.8 0.0
 
Date/Time
EST
Temp
°C
App
Temp
°C
Dew
Point
°C
Rel
Hum
%
Delta-T
°C
Wind Press
QNH
hPa
Press
MSL
hPa
Rain since
9am
mm
Dir  Spd
km/h
Gust
km/h
Spd
kts
Gust
kts
22/11:30pm 18.5 18.9 18.2 98 0.2 WSW 13 17 7 9 1022.1 1021.9 0.0
22/11:00pm 18.8 19.7 18.5 98 0.2 SW 11 13 6 7 1022.4 1022.2 0.0
22/10:30pm 18.7 19.3 18.5 99 0.1 SSW 13 15 7 8 1022.4 1022.2 0.0
22/10:00pm 18.7 19.3 18.5 99 0.1 SSW 13 13 7 7 1022.6 1022.4 0.0
22/09:30pm 19.2 20.5 19.2 100 0.0 S 11 13 6 7 1022.6 1022.4 0.0
22/09:00pm 18.8 19.5 18.8 100 0.0 SW 13 17 7 9 1022.7 1022.5 0.0
22/08:30pm 19.0 19.8 19.0 100 0.0 SW 13 17 7 9 1022.6 1022.4 0.0
22/08:00pm 19.3 20.2 19.3 100 0.0 SW 13 15 7 8 1022.4 1022.2 0.0
22/07:30pm 19.1 19.8 18.9 99 0.1 SW 13 17 7 9 1022.0 1021.8 0.0
22/07:00pm 19.1 19.5 18.9 99 0.1 SSW 15 19 8 10 1021.8 1021.6 0.0
22/06:30pm 19.1 19.7 18.6 97 0.3 SW 13 17 7 9 1021.6 1021.4 0.0
22/06:00pm 19.6 20.2 18.6 94 0.6 SSW 13 17 7 9 1021.3 1021.1 0.0
22/05:30pm 20.0 19.8 18.5 91 0.9 SSW 17 19 9 10 1020.9 1020.7 0.0
22/05:00pm 20.1 19.0 17.3 84 1.7 SSW 19 20 10 11 1020.9 1020.7 0.0
22/04:30pm 20.2 18.8 17.0 82 2.0 S 20 24 11 13 1020.9 1020.7 0.0
22/04:00pm 20.5 18.3 16.9 80 2.2 S 24 26 13 14 1020.6 1020.4 0.0
22/03:30pm 20.8 19.7 18.6 87 1.4 S 22 24 12 13 1020.5 1020.3 0.0
22/03:00pm 21.0 19.6 18.8 87 1.4 S 24 28 13 15 1020.5 1020.3 0.0
22/02:30pm 21.0 18.3 18.4 85 1.6 SSW 30 33 16 18 1020.6 1020.4 0.0
22/02:00pm 21.0 18.7 18.4 85 1.6 S 28 32 15 17 1020.7 1020.5 0.0
22/01:30pm 21.3 19.2 18.1 82 2.0 S 26 32 14 17 1020.9 1020.7 0.0
22/01:00pm 21.4 19.7 18.2 82 2.0 S 24 30 13 16 1021.1 1020.9 0.0
22/12:30pm 21.6 20.4 18.4 82 2.0 S 22 26 12 14 1021.3 1021.1 0.0
22/12:00pm 21.4 19.7 18.2 82 2.0 S 24 26 13 14 1021.6 1021.4 0.0
22/11:30am 21.8 21.2 18.4 81 2.1 SSW 19 26 10 14 1021.8 1021.6 0.0
22/11:00am 21.3 20.3 17.9 81 2.1 SSW 20 28 11 15 1022.3 1022.1 0.0
22/10:30am 20.8 19.9 18.2 85 1.6 SW 20 26 11 14 1022.7 1022.5 0.0
22/10:00am 20.2 19.3 18.1 88 1.3 SW 20 28 11 15 1023.0 1022.8 0.0
22/09:30am 19.9 18.5 18.0 89 1.2 SSW 22 30 12 16 1023.0 1022.8 0.0
22/09:00am 19.5 19.0 18.7 95 0.5 SW 19 28 10 15 1023.0 1022.8 0.2
22/08:30am 18.7 18.5 18.5 99 0.1 SW 17 22 9 12 1022.8 1022.6 0.2
22/08:00am 18.1 17.6 17.9 99 0.1 WSW 17 26 9 14 1022.7 1022.5 0.2
22/07:30am 17.8 16.7 17.8 100 0.0 WSW 20 26 11 14 1022.4 1022.2 0.2
22/07:00am 17.6 16.1 17.6 100 0.0 WSW 22 28 12 15 1022.0 1021.8 0.2
22/06:30am 17.5 15.5 17.5 100 0.0 WSW 24 28 13 15 1021.6 1021.4 0.2
22/06:00am 17.2 15.1 17.2 100 0.0 WSW 24 30 13 16 1021.1 1020.9 0.2
22/05:30am 17.1 15.0 17.1 100 0.0 WSW 24 28 13 15 1020.8 1020.6 0.0
22/05:00am 16.8 14.9 16.8 100 0.0 WSW 22 28 12 15 1020.6 1020.4 0.0
22/04:30am 17.1 15.4 17.1 100 0.0 WSW 22 28 12 15 1020.6 1020.4 0.0
22/04:00am 17.3 15.6 17.3 100 0.0 WSW 22 28 12 15 1020.4 1020.2 0.0
22/03:30am 17.0 14.8 17.0 100 0.0 WSW 24 30 13 16 1020.4 1020.2 0.0
22/03:00am 16.7 14.3 16.5 99 0.1 WSW 24 30 13 16 1020.5 1020.3 0.0
22/02:30am 17.7 16.6 17.4 98 0.2 WSW 19 26 10 14 1020.4 1020.2 0.0
22/02:00am 18.1 17.2 17.8 98 0.2 WSW 19 26 10 14 1020.6 1020.4 0.0
22/01:30am 18.4 18.7 17.9 97 0.3 SW 13 15 7 8 1020.7 1020.5 0.0
22/01:00am 18.6 19.4 18.1 97 0.3 SW 11 15 6 8 1020.8 1020.6 0.0
22/12:30am 18.9 19.7 18.2 96 0.4 SSW 11 13 6 7 1021.0 1020.8 0.0
22/12:00am 19.3 20.3 18.6 96 0.4 S 11 13 6 7 1020.8 1020.6 0.0
 
Date/Time
EST
Temp
°C
App
Temp
°C
Dew
Point
°C
Rel
Hum
%
Delta-T
°C
Wind Press
QNH
hPa
Press
MSL
hPa
Rain since
9am
mm
Dir  Spd
km/h
Gust
km/h
Spd
kts
Gust
kts
21/11:30pm 19.1 20.0 18.3 95 0.5 SSW 11 13 6 7 1021.1 1020.9 0.0
21/11:00pm 19.1 20.3 18.3 95 0.5 SSW 9 13 5 7 1021.3 1021.1 0.0
21/10:30pm 19.3 20.6 18.5 95 0.5 SW 9 9 5 5 1021.2 1021.0 0.0
21/10:00pm 19.4 22.4 18.4 94 0.6 CALM 0 4 0 2 1021.3 1021.1 0.0
21/09:30pm 19.4 21.1 18.4 94 0.6 SW 7 7 4 4 1021.5 1021.3 0.0
21/09:00pm 19.5 21.4 18.5 94 0.6 WSW 6 7 3 4 1021.4 1021.2 0.0
21/08:30pm 19.4 21.2 18.4 94 0.6 WSW 6 7 3 4 1021.2 1021.0 0.0
21/08:00pm 19.5 21.5 18.7 95 0.5 ESE 6 9 3 5 1020.9 1020.7 0.0

Other Formats:

Comma delimited format used in spreadsheet applications
http://www.bom.gov.au/fwo/IDN60801/IDN60801.94599.axf

JavaScript Object Notation format (JSON) in row-major order
http://www.bom.gov.au/fwo/IDN60801/IDN60801.94599.json